Terminal Aerodrome Forecast
Issued by NWS

Home | Current Version | Previous Version | Text Only | Print | Product List | Glossary On
Versions: 1 2 3 4 5 6 7 8 9 10 11 12 13 14 15 16 17 18 19
000
FTUS44 KSJT 301700
TAFBBD
TAF
KBBD 301737Z 3018/3118 33012KT P6SM VCSH BKN050
     FM302000 01012KT P6SM BKN050
     FM310000 02007KT P6SM SCT050 BKN100
     FM310900 00000KT 4SM BR BKN015
     FM311400 07008KT P6SM SCT025 BKN035=

USA.gov is the U.S. government's official web portal to all federal, state and local government web resources and services.